createdAt,value
2023-02-28T00:01:29.360Z,94.30
2023-02-28T00:03:56.998Z,94.30
2023-02-28T00:06:25.168Z,94.40
2023-02-28T00:08:52.108Z,94.30
2023-02-28T00:11:18.902Z,94.30
2023-02-28T00:13:49.507Z,94.30
2023-02-28T00:16:17.972Z,94.30
2023-02-28T00:18:44.836Z,94.40
2023-02-28T00:21:11.619Z,94.30
2023-02-28T00:23:38.493Z,94.50
2023-02-28T00:26:05.527Z,94.40
2023-02-28T00:28:32.460Z,94.40
2023-02-28T00:31:01.181Z,94.40
2023-02-28T00:33:28.494Z,94.40
2023-02-28T00:36:02.795Z,94.40
2023-02-28T00:38:29.535Z,94.40
2023-02-28T00:40:56.343Z,94.40
2023-02-28T00:43:23.233Z,94.40
2023-02-28T00:45:50.069Z,94.50
2023-02-28T00:48:17.167Z,94.50
2023-02-28T00:50:43.915Z,94.50
2023-02-28T00:53:10.639Z,94.40
2023-02-28T00:55:37.367Z,94.50
2023-02-28T00:58:04.294Z,94.50
2023-02-28T01:00:31.027Z,94.40
2023-02-28T01:02:57.762Z,94.50
2023-02-28T01:05:25.070Z,94.50
2023-02-28T01:07:51.797Z,94.50
2023-02-28T01:10:18.613Z,94.50
2023-02-28T01:12:45.399Z,94.50
2023-02-28T01:15:12.275Z,94.50
2023-02-28T01:17:39.015Z,94.50
2023-02-28T01:20:05.989Z,94.50
2023-02-28T01:22:32.830Z,94.50
2023-02-28T01:25:01.429Z,94.40
2023-02-28T01:27:29.613Z,94.50
2023-02-28T01:29:56.378Z,94.50
2023-02-28T01:32:23.242Z,94.50
2023-02-28T01:34:50.074Z,94.50
2023-02-28T01:37:16.758Z,94.50
2023-02-28T01:39:43.470Z,94.50
2023-02-28T01:42:10.931Z,94.50
2023-02-28T01:44:56.436Z,94.50
2023-02-28T01:47:24.201Z,94.50
2023-02-28T01:49:52.572Z,94.50
2023-02-28T01:52:20.061Z,94.40
2023-02-28T01:54:48.841Z,94.50
2023-02-28T01:57:16.960Z,94.50
2023-02-28T01:59:58.712Z,94.60
2023-02-28T02:02:25.981Z,94.50
2023-02-28T02:04:55.752Z,94.50
2023-02-28T02:07:22.892Z,94.40
2023-02-28T02:09:49.685Z,94.40
2023-02-28T02:12:23.184Z,94.40
2023-02-28T02:15:02.136Z,94.50
2023-02-28T02:17:31.917Z,94.50
2023-02-28T02:20:17.378Z,94.50
2023-02-28T02:22:52.920Z,94.50
2023-02-28T02:25:25.764Z,94.50
2023-02-28T02:28:17.774Z,94.50
2023-02-28T02:30:48.057Z,94.50
2023-02-28T02:33:27.010Z,94.50
2023-02-28T02:35:56.886Z,94.50
2023-02-28T02:38:35.761Z,94.50
2023-02-28T02:41:20.800Z,94.50
2023-02-28T02:43:51.267Z,94.50
2023-02-28T02:46:21.476Z,94.50
2023-02-28T02:48:49.117Z,94.50
2023-02-28T02:51:17.511Z,94.60
2023-02-28T02:53:50.327Z,94.50
2023-02-28T02:56:20.626Z,94.50
2023-02-28T02:58:48.091Z,94.50
2023-02-28T03:01:17.117Z,94.60
2023-02-28T03:03:44.457Z,94.50
2023-02-28T03:06:11.294Z,94.50
2023-02-28T03:08:39.007Z,94.50
2023-02-28T03:11:07.355Z,94.50
2023-02-28T03:13:34.055Z,94.60
2023-02-28T03:16:00.774Z,94.60
2023-02-28T03:18:47.809Z,94.60
2023-02-28T03:21:20.865Z,94.60
2023-02-28T03:23:53.321Z,94.60
2023-02-28T03:26:24.782Z,94.60
2023-02-28T03:28:54.816Z,94.60
2023-02-28T03:31:21.576Z,94.60
2023-02-28T03:33:55.968Z,94.60
2023-02-28T03:36:26.183Z,94.60
2023-02-28T03:38:55.953Z,94.50
2023-02-28T03:41:34.223Z,94.60
2023-02-28T03:44:03.317Z,94.60
2023-02-28T03:46:32.414Z,94.60
2023-02-28T03:49:04.828Z,94.50
2023-02-28T03:51:33.088Z,94.60
2023-02-28T03:54:03.795Z,94.50
2023-02-28T03:56:40.592Z,94.60
2023-02-28T03:59:07.353Z,94.50
2023-02-28T04:01:48.312Z,94.60
2023-02-28T04:04:15.400Z,94.50
2023-02-28T04:06:42.613Z,94.50
2023-02-28T04:11:38.604Z,94.50
2023-02-28T04:14:06.358Z,94.50
2023-02-28T04:16:35.833Z,94.30
2023-02-28T04:19:05.891Z,94.40
2023-02-28T04:21:34.188Z,94.50
2023-02-28T04:24:01.767Z,94.50
2023-02-28T04:26:32.262Z,94.50
2023-02-28T04:28:59.637Z,94.40
2023-02-28T04:31:26.963Z,94.40
2023-02-28T04:33:53.774Z,94.40
2023-02-28T04:36:20.725Z,94.30
2023-02-28T04:38:47.704Z,94.30
2023-02-28T04:41:14.557Z,94.20
2023-02-28T04:43:41.416Z,94.30
2023-02-28T04:46:08.280Z,94.50
2023-02-28T04:48:36.574Z,94.30
2023-02-28T04:51:07.809Z,94.10
2023-02-28T04:53:35.068Z,94.30
2023-02-28T04:56:02.073Z,94.20
2023-02-28T04:58:29.173Z,94.20
2023-02-28T05:01:01.939Z,94.30
2023-02-28T05:03:28.687Z,94.30
2023-02-28T05:05:55.514Z,94.20
2023-02-28T05:08:22.245Z,94.30
2023-02-28T05:10:49.007Z,94.30
2023-02-28T05:13:15.830Z,94.30
2023-02-28T05:15:42.597Z,94.30
2023-02-28T05:18:09.461Z,94.20
2023-02-28T05:20:36.238Z,94.30
2023-02-28T05:23:03.169Z,94.30
2023-02-28T05:25:30.006Z,94.30
2023-02-28T05:27:56.775Z,94.30
2023-02-28T05:30:23.533Z,94.20
2023-02-28T05:32:51.641Z,94.30
2023-02-28T05:35:18.452Z,94.20
2023-02-28T05:37:45.415Z,94.20
2023-02-28T05:40:12.372Z,94.30
2023-02-28T05:42:39.530Z,94.60
2023-02-28T05:45:06.520Z,94.30
2023-02-28T05:47:33.266Z,94.40
2023-02-28T05:50:00.218Z,94.40
2023-02-28T05:52:27.024Z,94.30
2023-02-28T05:54:58.040Z,94.30
2023-02-28T05:57:38.329Z,94.40
2023-02-28T06:00:05.384Z,94.30
2023-02-28T06:02:32.165Z,94.30
2023-02-28T06:04:58.924Z,94.30
2023-02-28T06:07:25.655Z,94.30
2023-02-28T06:09:52.391Z,94.40
2023-02-28T06:12:19.124Z,94.30
2023-02-28T06:14:45.905Z,94.40
2023-02-28T06:17:12.775Z,94.30
2023-02-28T06:19:42.460Z,94.30
2023-02-28T06:22:09.207Z,94.30
2023-02-28T06:24:36.047Z,94.30
2023-02-28T06:27:06.103Z,94.30
2023-02-28T06:29:34.038Z,94.30
2023-02-28T06:32:01.067Z,94.30
2023-02-28T06:34:27.909Z,94.40
2023-02-28T06:36:54.706Z,94.30
2023-02-28T06:39:21.686Z,94.30
2023-02-28T06:41:55.456Z,94.40
2023-02-28T06:44:23.629Z,94.40
2023-02-28T06:46:50.412Z,94.40
2023-02-28T06:49:17.557Z,94.20
2023-02-28T06:51:46.170Z,94.30
2023-02-28T06:54:13.597Z,94.30
2023-02-28T06:56:40.362Z,94.30
2023-02-28T06:59:07.130Z,94.30
2023-02-28T07:01:34.122Z,94.30
2023-02-28T07:04:01.111Z,94.30
2023-02-28T07:06:28.269Z,94.30
2023-02-28T07:08:55.558Z,94.30
2023-02-28T07:11:26.789Z,94.30
2023-02-28T07:13:54.420Z,94.30
2023-02-28T07:16:21.236Z,94.20
2023-02-28T07:18:48.402Z,94.30
2023-02-28T07:21:15.494Z,94.30
2023-02-28T07:23:43.054Z,94.30
2023-02-28T07:26:15.837Z,94.30
2023-02-28T07:28:43.448Z,94.20
2023-02-28T07:31:10.698Z,94.10
2023-02-28T07:33:38.176Z,94.30
2023-02-28T07:36:09.475Z,94.20
2023-02-28T07:38:37.435Z,94.20
2023-02-28T07:41:07.466Z,94.30
2023-02-28T07:43:34.318Z,94.20
2023-02-28T07:46:09.559Z,94.20
2023-02-28T07:48:36.450Z,94.10
2023-02-28T07:51:03.597Z,94.30
2023-02-28T07:53:31.055Z,94.10
2023-02-28T07:55:58.441Z,94.20
2023-02-28T07:58:25.794Z,94.20
2023-02-28T08:00:52.948Z,94.00
2023-02-28T08:03:20.949Z,94.10
2023-02-28T08:05:48.734Z,94.00
2023-02-28T08:08:16.334Z,94.20
2023-02-28T08:10:43.054Z,94.10
2023-02-28T08:13:09.907Z,94.10
2023-02-28T08:15:37.425Z,94.10
2023-02-28T08:18:04.617Z,94.00
2023-02-28T08:20:31.765Z,94.10
2023-02-28T08:22:58.597Z,94.10
2023-02-28T08:25:25.319Z,94.00
2023-02-28T08:27:52.999Z,94.10
2023-02-28T08:30:20.489Z,94.00
2023-02-28T08:32:47.336Z,93.90
2023-02-28T08:35:14.176Z,93.70
2023-02-28T08:37:41.091Z,93.90
2023-02-28T08:40:08.236Z,93.80
2023-02-28T08:42:35.000Z,93.80
2023-02-28T08:45:01.868Z,93.60
2023-02-28T08:47:28.624Z,93.70
2023-02-28T08:49:55.406Z,93.60
2023-02-28T08:52:22.166Z,93.70
2023-02-28T08:54:48.984Z,93.50
2023-02-28T08:57:15.743Z,93.30
2023-02-28T08:59:42.694Z,93.50
2023-02-28T09:02:09.768Z,93.20
2023-02-28T09:04:36.467Z,93.00
2023-02-28T09:07:03.250Z,92.90
2023-02-28T09:09:29.984Z,92.90
2023-02-28T09:11:57.473Z,93.00
2023-02-28T09:14:24.283Z,92.90
2023-02-28T09:16:51.326Z,92.70
2023-02-28T09:19:18.174Z,92.80
2023-02-28T09:21:44.998Z,92.50
2023-02-28T09:24:14.605Z,92.30
2023-02-28T09:26:47.288Z,92.50
2023-02-28T09:29:22.692Z,78.50
2023-02-28T09:31:49.649Z,79.10
2023-02-28T09:34:16.969Z,77.00
2023-02-28T09:36:46.121Z,77.10
2023-02-28T09:39:13.832Z,77.10
2023-02-28T09:41:52.253Z,75.40
2023-02-28T09:44:23.535Z,75.50
2023-02-28T09:46:53.695Z,76.10
2023-02-28T09:49:29.818Z,75.20
2023-02-28T09:52:00.047Z,75.50
2023-02-28T09:54:29.211Z,78.50
2023-02-28T09:57:14.825Z,80.10
2023-02-28T09:59:50.596Z,79.60
2023-02-28T10:02:32.682Z,86.70
2023-02-28T10:05:01.731Z,77.20
2023-02-28T10:07:44.242Z,74.30
2023-02-28T10:10:19.357Z,74.30
2023-02-28T10:12:48.061Z,73.50
2023-02-28T10:15:15.571Z,74.20
2023-02-28T10:17:55.236Z,74.80
2023-02-28T10:20:23.869Z,73.20
2023-02-28T10:22:50.590Z,74.10
2023-02-28T10:25:21.611Z,75.70
2023-02-28T10:27:48.538Z,74.80
2023-02-28T10:30:15.360Z,75.80
2023-02-28T10:32:46.204Z,75.50
2023-02-28T10:35:20.149Z,75.50
2023-02-28T10:37:48.199Z,75.00
2023-02-28T10:40:21.098Z,75.00
2023-02-28T10:42:56.975Z,74.10
2023-02-28T10:45:24.452Z,74.80
2023-02-28T10:47:55.142Z,75.20
2023-02-28T10:50:40.507Z,74.10
2023-02-28T10:53:25.826Z,74.20
2023-02-28T10:55:58.991Z,74.70
2023-02-28T10:58:26.974Z,75.60
2023-02-28T11:00:53.821Z,75.10
2023-02-28T11:03:38.480Z,74.50
2023-02-28T11:06:07.592Z,73.70
2023-02-28T11:08:35.485Z,74.80
2023-02-28T11:11:06.116Z,74.30
2023-02-28T11:13:35.144Z,76.50
2023-02-28T11:16:03.984Z,77.90
2023-02-28T11:18:49.377Z,75.70
2023-02-28T11:21:18.104Z,73.80
2023-02-28T11:23:44.881Z,74.90
2023-02-28T11:26:12.386Z,74.80
2023-02-28T11:28:40.825Z,75.80
2023-02-28T11:31:14.937Z,74.20
2023-02-28T11:33:42.198Z,75.00
2023-02-28T11:36:18.019Z,75.50
2023-02-28T11:38:46.396Z,75.00
2023-02-28T11:41:19.338Z,75.20
2023-02-28T11:44:01.194Z,73.90
2023-02-28T11:46:28.433Z,73.50
2023-02-28T11:48:59.505Z,74.60
2023-02-28T11:51:49.606Z,74.50
2023-02-28T11:54:26.733Z,74.80
2023-02-28T11:57:00.722Z,74.80
2023-02-28T11:59:28.416Z,74.00
2023-02-28T12:02:04.151Z,74.30
2023-02-28T12:04:41.321Z,74.50
2023-02-28T12:07:14.467Z,73.70
2023-02-28T12:09:45.048Z,73.00
2023-02-28T12:12:18.830Z,75.00
2023-02-28T12:15:06.784Z,76.40
2023-02-28T12:17:33.581Z,75.90
2023-02-28T12:20:19.834Z,76.10
2023-02-28T12:22:54.507Z,75.80
2023-02-28T12:25:21.227Z,75.50
2023-02-28T12:27:49.068Z,75.20
2023-02-28T12:30:24.975Z,73.00
2023-02-28T12:33:04.223Z,73.60
2023-02-28T12:35:46.438Z,73.90
2023-02-28T12:38:36.490Z,74.40
2023-02-28T12:41:08.875Z,73.30
2023-02-28T12:43:38.705Z,73.90
2023-02-28T12:46:13.885Z,75.90
2023-02-28T12:48:40.712Z,75.70
2023-02-28T12:51:08.237Z,76.70
2023-02-28T12:53:44.153Z,75.80
2023-02-28T12:56:10.839Z,76.40
2023-02-28T12:58:43.097Z,77.00
2023-02-28T13:01:10.011Z,74.70
2023-02-28T13:03:42.603Z,73.80
2023-02-28T13:06:28.836Z,75.80
2023-02-28T13:09:01.999Z,74.10
2023-02-28T13:11:33.204Z,77.50
2023-02-28T13:14:01.083Z,76.60
2023-02-28T13:16:28.135Z,76.40
2023-02-28T13:19:09.213Z,75.30
2023-02-28T13:21:43.132Z,76.40
2023-02-28T13:24:10.010Z,74.00
2023-02-28T13:26:36.781Z,74.40
2023-02-28T13:29:24.040Z,74.80
2023-02-28T13:32:09.335Z,74.40
2023-02-28T13:34:37.376Z,73.30
2023-02-28T13:37:22.525Z,73.80
2023-02-28T13:39:51.085Z,73.80
2023-02-28T13:42:24.070Z,76.40
2023-02-28T13:45:03.129Z,75.80
2023-02-28T13:47:31.479Z,76.90
2023-02-28T13:50:17.941Z,77.40
2023-02-28T13:53:04.935Z,77.40
2023-02-28T13:55:31.734Z,76.60
2023-02-28T13:57:58.869Z,76.60
2023-02-28T14:00:44.107Z,77.00
2023-02-28T14:03:10.857Z,76.30
2023-02-28T14:05:38.763Z,77.70
2023-02-28T14:08:25.799Z,76.10
2023-02-28T14:11:03.901Z,75.70
2023-02-28T14:13:48.002Z,75.70
2023-02-28T14:16:16.412Z,78.60
2023-02-28T14:18:56.067Z,78.70
2023-02-28T14:21:29.894Z,78.50
2023-02-28T14:24:15.234Z,77.60
2023-02-28T14:26:57.668Z,76.70
2023-02-28T14:29:43.334Z,77.20
2023-02-28T14:32:18.905Z,76.60
2023-02-28T14:37:31.985Z,76.90
2023-02-28T14:39:59.458Z,76.30
2023-02-28T14:42:30.691Z,77.00
2023-02-28T14:44:58.932Z,76.40
2023-02-28T14:47:34.029Z,76.70
2023-02-28T14:50:01.789Z,75.70
2023-02-28T14:52:30.529Z,75.80
2023-02-28T14:54:59.546Z,75.80
2023-02-28T14:57:30.870Z,76.10
2023-02-28T14:59:58.621Z,77.20
2023-02-28T15:02:26.662Z,78.50
2023-02-28T15:05:11.272Z,78.00
2023-02-28T15:07:38.414Z,78.40
2023-02-28T15:10:08.311Z,78.20
2023-02-28T15:12:35.675Z,78.40
2023-02-28T15:15:02.878Z,76.40
2023-02-28T15:17:29.974Z,76.40
2023-02-28T15:19:56.905Z,77.20
2023-02-28T15:22:32.592Z,78.40
2023-02-28T15:24:59.864Z,79.40
2023-02-28T15:27:28.358Z,80.00
2023-02-28T15:29:57.091Z,80.90
2023-02-28T15:32:29.442Z,81.50
2023-02-28T15:34:56.750Z,81.60
2023-02-28T15:37:31.036Z,82.10
2023-02-28T15:39:59.575Z,82.30
2023-02-28T15:42:29.536Z,82.90
2023-02-28T15:44:56.569Z,83.40
2023-02-28T15:47:24.577Z,83.00
2023-02-28T15:49:55.724Z,83.00
2023-02-28T15:52:25.136Z,82.60
2023-02-28T15:54:52.663Z,79.90
2023-02-28T15:57:25.439Z,81.80
2023-02-28T15:59:55.243Z,82.40
2023-02-28T16:02:23.382Z,83.70
2023-02-28T16:05:19.502Z,83.90
2023-02-28T16:07:46.287Z,84.40
2023-02-28T16:10:15.150Z,84.90
2023-02-28T16:12:42.405Z,85.40
2023-02-28T16:15:23.610Z,86.00
2023-02-28T16:17:50.998Z,85.60
2023-02-28T16:20:19.308Z,84.50
2023-02-28T16:22:46.723Z,84.70
2023-02-28T16:25:20.723Z,84.70
2023-02-28T16:27:51.832Z,84.50
2023-02-28T16:30:23.618Z,84.90
2023-02-28T16:32:51.328Z,85.20
2023-02-28T16:35:18.961Z,85.40
2023-02-28T16:37:46.135Z,85.40
2023-02-28T16:40:26.554Z,85.50
2023-02-28T16:42:58.728Z,85.90
2023-02-28T16:45:29.696Z,86.10
2023-02-28T16:47:56.636Z,86.30
2023-02-28T16:50:30.621Z,86.40
2023-02-28T16:52:57.564Z,86.40
2023-02-28T16:55:24.946Z,86.60
2023-02-28T16:57:56.375Z,86.60
2023-02-28T17:00:23.408Z,86.70
2023-02-28T17:02:50.238Z,86.90
2023-02-28T17:05:18.402Z,87.10
2023-02-28T17:07:45.261Z,87.00
2023-02-28T17:10:15.136Z,87.00
2023-02-28T17:12:42.103Z,87.10
2023-02-28T17:15:10.162Z,87.20
2023-02-28T17:17:36.980Z,88.10
2023-02-28T17:20:04.259Z,87.40
2023-02-28T17:22:30.966Z,87.60
2023-02-28T17:24:58.725Z,88.30
2023-02-28T17:27:26.102Z,87.70
2023-02-28T17:29:52.836Z,87.60
2023-02-28T17:32:20.150Z,87.90
2023-02-28T17:34:47.254Z,88.10
2023-02-28T17:37:14.230Z,88.10
2023-02-28T17:39:41.058Z,88.10
2023-02-28T17:42:09.142Z,88.20
2023-02-28T17:44:35.900Z,88.50
2023-02-28T17:47:02.758Z,88.50
2023-02-28T17:49:29.683Z,89.20
2023-02-28T17:51:56.453Z,88.50
2023-02-28T17:54:23.196Z,88.70
2023-02-28T17:56:50.078Z,88.60
2023-02-28T17:59:16.864Z,88.80
2023-02-28T18:01:43.611Z,88.80
2023-02-28T18:04:10.564Z,88.80
2023-02-28T18:06:51.363Z,88.90
2023-02-28T18:09:19.612Z,89.10
2023-02-28T18:11:46.366Z,89.10
2023-02-28T18:14:13.186Z,89.20
2023-02-28T18:16:40.171Z,89.20
2023-02-28T18:19:07.173Z,89.20
2023-02-28T18:21:34.070Z,89.40
2023-02-28T18:24:00.942Z,89.40
2023-02-28T18:26:28.566Z,89.60
2023-02-28T18:28:56.162Z,89.60
2023-02-28T18:31:23.148Z,89.60
2023-02-28T18:33:50.730Z,89.60
2023-02-28T18:36:18.511Z,89.40
2023-02-28T18:38:46.129Z,89.60
2023-02-28T18:41:13.206Z,89.80
2023-02-28T18:43:40.113Z,89.80
2023-02-28T18:46:07.840Z,89.70
2023-02-28T18:48:34.696Z,89.70
2023-02-28T18:51:08.325Z,90.00
2023-02-28T18:53:38.684Z,90.00
2023-02-28T18:56:06.316Z,90.00
2023-02-28T18:58:35.991Z,90.00
2023-02-28T19:01:03.744Z,90.00
2023-02-28T19:03:30.712Z,90.00
2023-02-28T19:05:58.334Z,90.00
2023-02-28T19:08:25.605Z,90.10
2023-02-28T19:10:52.599Z,90.10
2023-02-28T19:13:20.915Z,90.20
2023-02-28T19:15:48.143Z,90.10
2023-02-28T19:18:15.104Z,90.20
2023-02-28T19:20:41.907Z,90.20
2023-02-28T19:23:11.704Z,90.10
2023-02-28T19:25:42.676Z,90.10
2023-02-28T19:28:09.463Z,90.20
2023-02-28T19:30:36.220Z,90.30
2023-02-28T19:33:03.106Z,90.30
2023-02-28T19:35:30.119Z,90.30
2023-02-28T19:37:58.830Z,90.20
2023-02-28T19:40:25.872Z,90.30
2023-02-28T19:42:52.665Z,90.20
2023-02-28T19:45:19.429Z,90.30
2023-02-28T19:47:46.317Z,90.20
2023-02-28T19:50:13.053Z,90.30
2023-02-28T19:52:42.879Z,90.30
2023-02-28T19:55:10.071Z,90.40
2023-02-28T19:57:37.073Z,90.30
2023-02-28T20:00:04.232Z,90.50
2023-02-28T20:02:31.283Z,90.30
2023-02-28T20:05:01.299Z,90.50
2023-02-28T20:07:28.407Z,90.50
2023-02-28T20:09:55.279Z,90.50
2023-02-28T20:12:24.506Z,90.50
2023-02-28T20:14:52.488Z,90.40
2023-02-28T20:17:19.409Z,90.50
2023-02-28T20:19:46.252Z,90.60
2023-02-28T20:22:13.405Z,90.70
2023-02-28T20:24:40.264Z,90.70
2023-02-28T20:27:07.056Z,90.80
2023-02-28T20:29:34.502Z,90.70
2023-02-28T20:32:01.729Z,90.70
2023-02-28T20:34:28.787Z,90.70
2023-02-28T20:36:56.793Z,90.60
2023-02-28T20:39:23.934Z,90.80
2023-02-28T20:41:50.893Z,90.70
2023-02-28T20:44:17.655Z,90.80
2023-02-28T20:46:44.674Z,90.90
2023-02-28T20:49:11.591Z,90.90
2023-02-28T20:51:40.611Z,91.00
2023-02-28T20:54:08.264Z,91.00
2023-02-28T20:56:36.037Z,90.90
2023-02-28T20:59:03.402Z,90.90
2023-02-28T21:01:32.070Z,90.90
2023-02-28T21:04:00.466Z,91.00
2023-02-28T21:06:29.575Z,90.90
2023-02-28T21:08:57.819Z,91.10
2023-02-28T21:11:28.893Z,91.10
2023-02-28T21:13:56.221Z,91.00
2023-02-28T21:16:24.936Z,91.10
2023-02-28T21:18:53.129Z,91.10
2023-02-28T21:21:21.790Z,91.00
2023-02-28T21:23:49.238Z,91.10
2023-02-28T21:26:20.320Z,91.20
2023-02-28T21:28:51.752Z,91.10
2023-02-28T21:31:19.755Z,91.20
2023-02-28T21:33:46.887Z,91.20
2023-02-28T21:36:15.750Z,91.20
2023-02-28T21:38:43.136Z,91.20
2023-02-28T21:41:11.894Z,91.20
2023-02-28T21:43:39.170Z,91.30
2023-02-28T21:46:10.369Z,91.30
2023-02-28T21:48:37.695Z,91.30
2023-02-28T21:51:06.822Z,91.20
2023-02-28T21:53:34.860Z,91.10
2023-02-28T21:56:06.134Z,91.10
2023-02-28T21:58:33.202Z,91.10
2023-02-28T22:01:05.984Z,91.20
2023-02-28T22:03:33.261Z,91.20
2023-02-28T22:06:00.128Z,91.20
2023-02-28T22:08:27.543Z,91.20
2023-02-28T22:10:54.558Z,91.20
2023-02-28T22:13:21.339Z,91.10
2023-02-28T22:15:48.649Z,91.20
2023-02-28T22:18:15.585Z,91.20
2023-02-28T22:20:42.950Z,91.20
2023-02-28T22:23:09.661Z,91.20
2023-02-28T22:25:37.206Z,91.30
2023-02-28T22:28:04.337Z,91.30
2023-02-28T22:30:31.375Z,91.30
2023-02-28T22:32:58.222Z,91.30
2023-02-28T22:35:24.999Z,91.30
2023-02-28T22:37:51.731Z,91.30
2023-02-28T22:40:18.718Z,91.30
2023-02-28T22:42:45.644Z,91.30
2023-02-28T22:45:12.658Z,91.30
2023-02-28T22:47:40.199Z,91.30
2023-02-28T22:50:07.297Z,91.30
2023-02-28T22:52:34.102Z,91.40
2023-02-28T22:55:00.999Z,91.40
2023-02-28T22:57:27.780Z,91.40
2023-02-28T22:59:54.583Z,91.40
2023-02-28T23:02:21.702Z,91.40
2023-02-28T23:04:48.531Z,91.40
2023-02-28T23:07:15.369Z,91.50
2023-02-28T23:09:42.105Z,91.50
2023-02-28T23:12:08.831Z,91.40
2023-02-28T23:14:35.563Z,91.50
2023-02-28T23:17:02.584Z,91.50
2023-02-28T23:19:30.527Z,91.50
2023-02-28T23:21:58.799Z,91.40
2023-02-28T23:24:27.221Z,91.50
2023-02-28T23:26:55.969Z,91.50
2023-02-28T23:29:23.418Z,91.50
2023-02-28T23:31:50.538Z,91.40
2023-02-28T23:34:24.837Z,91.50
2023-02-28T23:36:52.804Z,91.50
2023-02-28T23:39:20.351Z,91.50
2023-02-28T23:41:47.279Z,91.50
2023-02-28T23:44:17.086Z,91.50
2023-02-28T23:46:45.111Z,91.60
2023-02-28T23:49:11.909Z,91.50
2023-02-28T23:51:38.814Z,91.50
2023-02-28T23:54:05.825Z,91.50
2023-02-28T23:56:33.002Z,91.50
2023-02-28T23:59:00.295Z,91.60
